createdAt,value
2017-02-17T00:00:03.883Z,88.58
2017-02-17T00:01:13.207Z,88.58
2017-02-17T00:02:22.233Z,88.39
2017-02-17T00:03:31.982Z,89.06
2017-02-17T00:04:41.738Z,88.29
2017-02-17T00:05:51.486Z,88.48
2017-02-17T00:07:01.640Z,88.48
2017-02-17T00:08:11.009Z,88.34
2017-02-17T00:09:20.338Z,88.29
2017-02-17T00:10:29.268Z,88.29
2017-02-17T00:11:38.601Z,88.39
2017-02-17T00:12:47.932Z,88.29
2017-02-17T00:13:57.568Z,88.39
2017-02-17T00:15:07.324Z,88.34
2017-02-17T00:16:16.245Z,88.34
2017-02-17T00:17:25.580Z,88.39
2017-02-17T00:18:34.919Z,89.06
2017-02-17T00:19:44.495Z,89.06
2017-02-17T00:20:54.248Z,88.68
2017-02-17T00:22:03.202Z,88.91
2017-02-17T00:23:12.564Z,88.87
2017-02-17T00:24:21.481Z,88.77
2017-02-17T00:25:31.057Z,88.96
2017-02-17T00:26:40.381Z,88.81
2017-02-17T00:27:49.292Z,88.58
2017-02-17T00:28:58.216Z,88.96
2017-02-17T00:30:07.540Z,89.34
2017-02-17T00:31:16.626Z,89.25
2017-02-17T00:32:26.763Z,89.06
2017-02-17T00:33:35.695Z,89.06
2017-02-17T00:34:44.617Z,88.96
2017-02-17T00:35:53.944Z,88.87
2017-02-17T00:37:02.974Z,88.96
2017-02-17T00:38:12.304Z,88.77
2017-02-17T00:39:22.062Z,88.87
2017-02-17T00:40:31.794Z,88.77
2017-02-17T00:41:41.142Z,88.68
2017-02-17T00:42:51.120Z,88.77
2017-02-17T00:44:00.036Z,88.96
2017-02-17T00:45:09.355Z,89.15
2017-02-17T00:46:18.261Z,88.87
2017-02-17T00:47:27.176Z,88.96
2017-02-17T00:48:37.073Z,89.34
2017-02-17T00:49:46.005Z,88.96
2017-02-17T00:50:55.340Z,89.34
2017-02-17T00:52:05.087Z,88.96
2017-02-17T00:53:14.831Z,88.96
2017-02-17T00:54:24.197Z,88.87
2017-02-17T00:55:34.335Z,88.68
2017-02-17T00:56:43.695Z,88.96
2017-02-17T00:57:53.026Z,89.25
2017-02-17T00:59:03.169Z,88.96
2017-02-17T01:00:13.512Z,88.96
2017-02-17T01:01:22.446Z,88.96
2017-02-17T01:02:32.184Z,88.87
2017-02-17T01:03:41.910Z,88.77
2017-02-17T01:04:51.240Z,89.15
2017-02-17T01:06:00.413Z,89.15
2017-02-17T01:07:10.159Z,88.77
2017-02-17T01:08:19.091Z,88.96
2017-02-17T01:09:28.817Z,89.06
2017-02-17T01:10:38.954Z,89.15
2017-02-17T01:11:47.927Z,88.87
2017-02-17T01:12:58.073Z,89.43
2017-02-17T01:14:07.801Z,88.96
2017-02-17T01:15:17.537Z,89
2017-02-17T01:16:26.444Z,88.96
2017-02-17T01:17:35.872Z,89.62
2017-02-17T01:18:45.636Z,90.29
2017-02-17T01:19:55.791Z,90.14
2017-02-17T01:21:05.526Z,90.38
2017-02-17T01:22:14.437Z,90.9
2017-02-17T01:23:23.917Z,90.86
2017-02-17T01:24:32.827Z,91.09
2017-02-17T01:25:41.762Z,91.28
2017-02-17T01:26:51.110Z,91.56
2017-02-17T01:28:00.439Z,91.56
2017-02-17T01:29:10.338Z,91.71
2017-02-17T01:30:20.483Z,91.94
2017-02-17T01:31:29.396Z,92.33
2017-02-17T01:32:39.553Z,92.61
2017-02-17T01:33:49.279Z,92.33
2017-02-17T01:34:58.237Z,92.57
2017-02-17T01:36:08.394Z,92.61
2017-02-17T01:37:18.120Z,92.9
2017-02-17T01:38:27.845Z,93.04
2017-02-17T01:39:38.001Z,92.94
2017-02-17T01:40:47.371Z,93.04
2017-02-17T01:41:56.704Z,93.51
2017-02-17T01:43:06.437Z,93.61
2017-02-17T01:44:16.194Z,93.51
2017-02-17T01:45:25.106Z,93.23
2017-02-17T01:46:34.581Z,93.89
2017-02-17T01:47:43.941Z,93.89
2017-02-17T01:48:53.257Z,93.99
2017-02-17T01:50:02.581Z,94.56
2017-02-17T01:51:13.119Z,94.46
2017-02-17T01:52:22.079Z,94.27
2017-02-17T01:53:32.246Z,94.27
2017-02-17T01:54:41.995Z,94.27
2017-02-17T01:55:51.735Z,94.65
2017-02-17T01:57:01.484Z,94.08
2017-02-17T01:58:11.619Z,94.74
2017-02-17T01:59:21.347Z,94.46
2017-02-17T02:00:31.104Z,94.46
2017-02-17T02:01:40.038Z,94.37
2017-02-17T02:02:49.775Z,94.93
2017-02-17T02:03:58.797Z,94.84
2017-02-17T02:05:08.946Z,94.74
2017-02-17T02:06:18.302Z,94.46
2017-02-17T02:07:27.624Z,95.12
2017-02-17T02:08:36.936Z,95.31
2017-02-17T02:09:46.409Z,95.12
2017-02-17T02:10:55.327Z,95.22
2017-02-17T02:12:04.237Z,95.22
2017-02-17T02:13:13.569Z,94.84
2017-02-17T02:14:22.904Z,95.31
2017-02-17T02:15:32.491Z,95.36
2017-02-17T02:16:41.819Z,95.5
2017-02-17T02:17:51.544Z,94.98
2017-02-17T02:19:00.863Z,95.65
2017-02-17T02:20:10.188Z,95.31
2017-02-17T02:21:19.504Z,95.69
2017-02-17T02:22:28.426Z,95.74
2017-02-17T02:23:38.563Z,95.79
2017-02-17T02:24:48.698Z,95.79
2017-02-17T02:25:58.022Z,95.5
2017-02-17T02:27:07.553Z,95.79
2017-02-17T02:28:17.279Z,95.79
2017-02-17T02:29:26.612Z,96.12
2017-02-17T02:30:36.385Z,96.08
2017-02-17T02:31:46.127Z,96.08
2017-02-17T02:32:56.320Z,96.08
2017-02-17T02:34:06.047Z,95.93
2017-02-17T02:35:15.366Z,95.79
2017-02-17T02:36:25.511Z,95.88
2017-02-17T02:37:34.861Z,95.98
2017-02-17T02:38:44.701Z,96.08
2017-02-17T02:39:54.465Z,96.17
2017-02-17T02:41:03.395Z,96.22
2017-02-17T02:42:12.314Z,96.08
2017-02-17T02:43:22.035Z,96.92
2017-02-17T02:44:32.303Z,96.83
2017-02-17T02:45:41.244Z,96.83
2017-02-17T02:46:50.974Z,96.83
2017-02-17T02:48:00.296Z,96.64
2017-02-17T02:49:10.030Z,96.83
2017-02-17T02:50:20.175Z,96.73
2017-02-17T02:51:29.105Z,96.5
2017-02-17T02:52:38.030Z,96.41
2017-02-17T02:53:47.766Z,96.83
2017-02-17T02:54:57.088Z,96.73
2017-02-17T02:56:06.540Z,96.69
2017-02-17T02:57:15.481Z,96.55
2017-02-17T02:58:25.228Z,96.41
2017-02-17T02:59:35.354Z,96.92
2017-02-17T03:00:44.688Z,96.69
2017-02-17T03:01:54.605Z,97.17
2017-02-17T03:03:04.349Z,97.07
2017-02-17T03:04:13.677Z,97.02
2017-02-17T03:05:23.018Z,97.21
2017-02-17T03:06:32.351Z,97.07
2017-02-17T03:07:41.852Z,96.73
2017-02-17T03:08:51.189Z,97.17
2017-02-17T03:10:01.341Z,96.83
2017-02-17T03:11:10.694Z,97.02
2017-02-17T03:12:20.026Z,96.88
2017-02-17T03:13:29.902Z,97.07
2017-02-17T03:14:39.677Z,96.97
2017-02-17T03:15:49.424Z,97.26
2017-02-17T03:16:58.740Z,97.64
2017-02-17T03:18:07.657Z,97.5
2017-02-17T03:19:18.039Z,97.26
2017-02-17T03:20:27.369Z,97.02
2017-02-17T03:21:37.091Z,97.12
2017-02-17T03:22:46.456Z,97.5
2017-02-17T03:23:56.594Z,97.59
2017-02-17T03:25:06.917Z,97.59
2017-02-17T03:26:16.249Z,97.5
2017-02-17T03:27:25.593Z,97.4
2017-02-17T03:28:34.525Z,97.36
2017-02-17T03:29:44.256Z,98.11
2017-02-17T03:30:53.371Z,97.92
2017-02-17T03:32:02.687Z,97.64
2017-02-17T03:33:12.440Z,98.16
2017-02-17T03:34:22.206Z,97.59
2017-02-17T03:35:31.528Z,97.74
2017-02-17T03:36:40.641Z,97.88
2017-02-17T03:37:50.394Z,97.69
2017-02-17T03:39:00.148Z,97.59
2017-02-17T03:40:09.470Z,98.11
2017-02-17T03:41:18.799Z,98.11
2017-02-17T03:42:27.836Z,98.07
2017-02-17T03:43:37.155Z,98.3
2017-02-17T03:44:47.297Z,98.11
2017-02-17T03:45:57.032Z,98.07
2017-02-17T03:47:06.376Z,98.11
2017-02-17T03:48:16.278Z,98.11
2017-02-17T03:49:25.615Z,98.11
2017-02-17T03:50:34.942Z,97.88
2017-02-17T03:51:43.870Z,97.74
2017-02-17T03:52:52.781Z,97.74
2017-02-17T03:54:01.928Z,97.83
2017-02-17T03:55:11.248Z,98.21
2017-02-17T03:56:20.583Z,98.16
2017-02-17T03:57:29.901Z,97.88
2017-02-17T03:58:39.264Z,97.92
2017-02-17T03:59:49.617Z,98.3
2017-02-17T04:00:59.361Z,98.02
2017-02-17T04:02:09.091Z,98.44
2017-02-17T04:03:18.000Z,98.25
2017-02-17T04:04:27.734Z,98.97
2017-02-17T04:05:37.211Z,98.82
2017-02-17T04:06:46.938Z,98.78
2017-02-17T04:07:56.264Z,98.59
2017-02-17T04:09:05.605Z,98.78
2017-02-17T04:10:14.523Z,98.68
2017-02-17T04:11:23.501Z,98.49
2017-02-17T04:12:32.833Z,98.87
2017-02-17T04:13:42.147Z,98.49
2017-02-17T04:14:51.872Z,98.68
2017-02-17T04:16:01.197Z,98.68
2017-02-17T04:17:11.087Z,98.54
2017-02-17T04:18:20.405Z,98.59
2017-02-17T04:19:29.735Z,98.49
2017-02-17T04:20:39.475Z,98.63
2017-02-17T04:21:48.798Z,99.06
2017-02-17T04:22:58.186Z,98.59
2017-02-17T04:24:07.912Z,98.78
2017-02-17T04:25:17.245Z,98.78
2017-02-17T04:26:26.161Z,98.87
2017-02-17T04:27:35.505Z,98.97
2017-02-17T04:28:44.975Z,98.78
2017-02-17T04:29:54.720Z,98.87
2017-02-17T04:31:04.444Z,99.26
2017-02-17T04:32:13.364Z,99.44
2017-02-17T04:33:22.271Z,99.35
2017-02-17T04:34:31.254Z,99.16
2017-02-17T04:35:40.581Z,99.26
2017-02-17T04:36:51.125Z,99.26
2017-02-17T04:38:00.866Z,99.35
2017-02-17T04:39:09.825Z,99.54
2017-02-17T04:40:19.612Z,99.26
2017-02-17T04:41:28.956Z,99.16
2017-02-17T04:42:37.874Z,99.54
2017-02-17T04:43:47.619Z,99.73
2017-02-17T04:44:56.936Z,99.35
2017-02-17T04:46:06.657Z,99.35
2017-02-17T04:47:16.795Z,99.35
2017-02-17T04:48:26.155Z,99.54
2017-02-17T04:49:35.085Z,99.54
2017-02-17T04:50:45.277Z,99.63
2017-02-17T04:51:55.216Z,99.54
2017-02-17T04:53:04.938Z,99.63
2017-02-17T04:54:13.847Z,99.35
2017-02-17T04:55:22.753Z,99.26
2017-02-17T04:56:32.081Z,99.44
2017-02-17T04:57:41.498Z,99.54
2017-02-17T04:58:50.835Z,99.44
2017-02-17T05:00:00.169Z,99.44
2017-02-17T05:01:09.110Z,99.44
2017-02-17T05:02:18.034Z,99.44
2017-02-17T05:03:27.564Z,99.26
2017-02-17T05:04:37.284Z,99.26
2017-02-17T05:05:46.596Z,99.16
2017-02-17T05:06:55.922Z,99.54
2017-02-17T05:08:05.240Z,99.26
2017-02-17T05:09:15.020Z,99.54
2017-02-17T05:10:24.344Z,99.35
2017-02-17T05:11:33.670Z,99.54
2017-02-17T05:12:43.813Z,99.63
2017-02-17T05:13:53.152Z,99.63
2017-02-17T05:15:02.208Z,99.63
2017-02-17T05:16:11.942Z,99.63
2017-02-17T05:17:21.673Z,99.54
2017-02-17T05:18:31.000Z,99.73
2017-02-17T05:19:40.343Z,99.63
2017-02-17T05:20:49.719Z,99.73
2017-02-17T05:21:59.067Z,99.35
2017-02-17T05:23:09.219Z,99.73
2017-02-17T05:24:18.950Z,99.54
2017-02-17T05:25:27.879Z,99.54
2017-02-17T05:26:37.780Z,99.91
2017-02-17T05:27:47.507Z,99.91
2017-02-17T05:28:56.450Z,99.99
2017-02-17T05:30:05.387Z,99.99
2017-02-17T05:31:14.354Z,99.91
2017-02-17T05:32:23.803Z,99.99
2017-02-17T05:33:33.141Z,99.99
2017-02-17T05:34:42.865Z,99.82
2017-02-17T05:35:52.595Z,99.91
2017-02-17T05:37:01.935Z,99.91
2017-02-17T05:38:11.001Z,99.99
2017-02-17T05:39:20.735Z,99.99
2017-02-17T05:40:30.867Z,99.99
2017-02-17T05:41:40.185Z,99.99
2017-02-17T05:42:49.096Z,99.99
2017-02-17T05:43:59.099Z,99.99
2017-02-17T05:45:08.823Z,99.99
2017-02-17T05:46:18.550Z,99.99
2017-02-17T05:47:27.886Z,99.99
2017-02-17T05:48:37.623Z,99.99
2017-02-17T05:49:46.943Z,99.99
2017-02-17T05:50:57.092Z,99.99
2017-02-17T05:52:06.420Z,99.99
2017-02-17T05:53:16.160Z,99.73
2017-02-17T05:54:25.104Z,99.82
2017-02-17T05:55:34.076Z,99.99
2017-02-17T05:56:43.818Z,99.82
2017-02-17T05:57:53.140Z,99.82
2017-02-17T05:59:02.459Z,99.99
2017-02-17T06:00:11.832Z,99.99
2017-02-17T06:01:21.225Z,99.91
2017-02-17T06:02:31.367Z,99.99
2017-02-17T06:03:40.755Z,99.99
2017-02-17T06:04:49.692Z,99.99
2017-02-17T06:05:59.023Z,99.99
2017-02-17T06:07:08.486Z,99.99
2017-02-17T06:08:17.392Z,99.91
2017-02-17T06:09:26.298Z,99.99
2017-02-17T06:10:35.243Z,99.99
2017-02-17T06:11:44.979Z,99.99
2017-02-17T06:12:54.116Z,99.99
2017-02-17T06:14:03.441Z,99.82
2017-02-17T06:15:12.373Z,99.99
2017-02-17T06:16:22.138Z,99.99
2017-02-17T06:17:31.479Z,99.99
2017-02-17T06:18:40.667Z,99.99
2017-02-17T06:19:50.387Z,99.99
2017-02-17T06:20:59.735Z,99.99
2017-02-17T06:22:09.888Z,99.99
2017-02-17T06:23:19.226Z,99.99
2017-02-17T06:24:28.617Z,99.99
2017-02-17T06:25:37.935Z,99.99
2017-02-17T06:26:47.322Z,99.99
2017-02-17T06:27:57.470Z,99.99
2017-02-17T06:29:06.391Z,99.99
2017-02-17T06:30:15.736Z,99.99
2017-02-17T06:31:25.057Z,99.99
2017-02-17T06:32:34.783Z,99.99
2017-02-17T06:33:43.692Z,99.99
2017-02-17T06:34:53.041Z,99.99
2017-02-17T06:36:01.982Z,99.99
2017-02-17T06:37:11.306Z,99.99
2017-02-17T06:38:20.218Z,99.99
2017-02-17T06:39:29.160Z,99.99
2017-02-17T06:40:38.886Z,99.99
2017-02-17T06:41:48.212Z,99.99
2017-02-17T06:42:57.533Z,99.99
2017-02-17T06:44:06.850Z,99.99
2017-02-17T06:45:16.181Z,99.99
2017-02-17T06:46:25.910Z,99.99
2017-02-17T06:47:34.868Z,99.99
2017-02-17T06:48:43.799Z,99.99
2017-02-17T06:49:53.282Z,99.99
2017-02-17T06:51:03.018Z,99.99
2017-02-17T06:52:12.754Z,99.99
2017-02-17T06:53:22.097Z,99.99
2017-02-17T06:54:31.045Z,99.99
2017-02-17T06:55:40.840Z,99.99
2017-02-17T06:56:49.764Z,99.99
2017-02-17T06:57:58.701Z,99.99
2017-02-17T06:59:07.638Z,99.99
2017-02-17T07:00:16.956Z,99.99
2017-02-17T07:01:25.896Z,99.99
2017-02-17T07:02:35.635Z,99.99
2017-02-17T07:03:45.385Z,99.99
2017-02-17T07:04:54.762Z,99.99
2017-02-17T07:06:04.901Z,99.99
2017-02-17T07:07:14.294Z,99.99
2017-02-17T07:08:24.055Z,99.99
2017-02-17T07:09:33.398Z,99.99
2017-02-17T07:10:42.326Z,99.99
2017-02-17T07:11:52.080Z,99.99
2017-02-17T07:13:01.102Z,99.99
2017-02-17T07:14:10.842Z,99.99
2017-02-17T07:15:20.567Z,99.99
2017-02-17T07:16:29.912Z,99.99
2017-02-17T07:17:40.476Z,99.99
2017-02-17T07:18:49.873Z,99.99
2017-02-17T07:19:59.221Z,99.99
2017-02-17T07:21:08.964Z,99.99
2017-02-17T07:22:17.876Z,99.99
2017-02-17T07:23:27.213Z,99.99
2017-02-17T07:24:37.359Z,99.99
2017-02-17T07:25:46.278Z,99.99
2017-02-17T07:26:56.034Z,99.99
2017-02-17T07:28:04.951Z,99.99
2017-02-17T07:29:14.701Z,99.99
2017-02-17T07:30:24.688Z,99.99
2017-02-17T07:31:34.021Z,99.99
2017-02-17T07:32:43.768Z,99.99
2017-02-17T07:33:52.965Z,99.99
2017-02-17T07:35:03.326Z,99.99
2017-02-17T07:36:13.171Z,99.99
2017-02-17T07:37:22.345Z,99.99
2017-02-17T07:38:31.780Z,99.99
2017-02-17T07:39:41.768Z,99.99
2017-02-17T07:40:50.738Z,99.99
2017-02-17T07:42:00.136Z,99.99
2017-02-17T07:43:10.271Z,99.99
2017-02-17T07:44:19.608Z,99.99
2017-02-17T07:45:28.522Z,99.99
2017-02-17T07:46:37.862Z,99.99
2017-02-17T07:47:47.257Z,99.99
2017-02-17T07:48:56.575Z,99.99
2017-02-17T07:50:06.741Z,99.99
2017-02-17T07:51:15.680Z,99.99
2017-02-17T07:52:24.700Z,99.99
2017-02-17T07:53:34.167Z,99.99
2017-02-17T07:54:43.102Z,99.99
2017-02-17T07:55:52.448Z,99.99
2017-02-17T07:57:01.386Z,99.99
2017-02-17T07:58:11.557Z,99.99
2017-02-17T07:59:20.617Z,99.99
2017-02-17T08:00:30.356Z,99.99
2017-02-17T08:01:39.692Z,99.99
2017-02-17T08:02:49.432Z,99.99
2017-02-17T08:03:59.166Z,99.99
2017-02-17T08:05:09.643Z,99.99
2017-02-17T08:06:19.374Z,99.99
2017-02-17T08:07:28.692Z,99.99
2017-02-17T08:08:38.425Z,99.99
2017-02-17T08:09:47.345Z,99.99
2017-02-17T08:10:57.564Z,99.99
2017-02-17T08:12:07.304Z,99.99
2017-02-17T08:13:16.220Z,99.99
2017-02-17T08:14:25.547Z,99.99
2017-02-17T08:15:34.873Z,99.99
2017-02-17T08:16:43.863Z,99.99
2017-02-17T08:17:52.783Z,99.99
2017-02-17T08:19:02.117Z,99.99
2017-02-17T08:20:12.266Z,99.99
2017-02-17T08:21:21.176Z,99.99
2017-02-17T08:22:31.103Z,99.99
2017-02-17T08:23:40.424Z,99.99
2017-02-17T08:24:49.750Z,99.99
2017-02-17T08:25:59.472Z,99.99
2017-02-17T08:27:08.833Z,99.99
2017-02-17T08:28:17.919Z,99.99
2017-02-17T08:29:27.676Z,99.99
2017-02-17T08:30:37.808Z,99.99
2017-02-17T08:31:47.133Z,99.99
2017-02-17T08:32:56.474Z,99.99
2017-02-17T08:34:06.357Z,99.99
2017-02-17T08:35:16.098Z,99.99
2017-02-17T08:36:25.419Z,99.99
2017-02-17T08:37:34.741Z,99.99
2017-02-17T08:38:44.085Z,99.99
2017-02-17T08:39:53.458Z,99.99
2017-02-17T08:41:02.401Z,99.99
2017-02-17T08:42:12.534Z,99.99
2017-02-17T08:43:21.462Z,99.99
2017-02-17T08:44:30.381Z,99.99
2017-02-17T08:45:39.976Z,99.99
2017-02-17T08:46:49.346Z,99.99
2017-02-17T08:47:58.662Z,99.99
2017-02-17T08:49:07.997Z,99.99
2017-02-17T08:50:17.751Z,99.99
2017-02-17T08:51:27.565Z,99.99
2017-02-17T08:52:38.113Z,99.99
2017-02-17T08:53:47.440Z,99.99
2017-02-17T08:54:57.177Z,99.99
2017-02-17T08:56:06.510Z,99.99
2017-02-17T08:57:16.308Z,99.99
2017-02-17T08:58:26.032Z,99.99
2017-02-17T08:59:35.352Z,99.99
2017-02-17T09:00:44.675Z,99.99
2017-02-17T09:01:53.596Z,99.99
2017-02-17T09:03:02.989Z,99.99
2017-02-17T09:04:12.317Z,99.99
2017-02-17T09:05:21.236Z,99.99
2017-02-17T09:06:30.555Z,99.99
2017-02-17T09:07:39.484Z,99.99
2017-02-17T09:08:48.813Z,99.99
2017-02-17T09:09:58.149Z,99.99
2017-02-17T09:11:07.501Z,99.99
2017-02-17T09:12:17.238Z,99.99
2017-02-17T09:13:26.575Z,99.99
2017-02-17T09:14:36.463Z,99.99
2017-02-17T09:15:45.389Z,99.99
2017-02-17T09:16:54.713Z,99.99
2017-02-17T09:18:04.453Z,99.99
2017-02-17T09:19:13.361Z,99.99
2017-02-17T09:20:23.087Z,99.99
2017-02-17T09:21:32.884Z,99.99
2017-02-17T09:22:42.627Z,99.99
2017-02-17T09:23:52.356Z,99.99
2017-02-17T09:25:02.115Z,99.99
2017-02-17T09:26:11.984Z,99.99
2017-02-17T09:27:20.950Z,99.99
2017-02-17T09:28:29.858Z,99.99
2017-02-17T09:29:39.613Z,99.99
2017-02-17T09:30:49.347Z,99.99
2017-02-17T09:31:58.663Z,99.99
2017-02-17T09:33:07.992Z,99.99
2017-02-17T09:34:17.717Z,99.99
2017-02-17T09:35:27.458Z,99.99
2017-02-17T09:36:37.198Z,99.99
2017-02-17T09:37:46.191Z,99.99
2017-02-17T09:38:55.129Z,99.99
2017-02-17T09:40:04.882Z,99.99
2017-02-17T09:41:14.635Z,99.99
2017-02-17T09:42:23.967Z,99.99
2017-02-17T09:43:34.156Z,99.99
2017-02-17T09:44:43.080Z,99.99
2017-02-17T09:45:52.814Z,99.99
2017-02-17T09:47:02.544Z,99.99
2017-02-17T09:48:12.278Z,99.99
2017-02-17T09:49:21.693Z,99.99
2017-02-17T09:50:31.015Z,99.99
2017-02-17T09:51:40.361Z,99.99
2017-02-17T09:52:49.310Z,99.99
2017-02-17T09:53:59.104Z,99.99
2017-02-17T09:55:09.235Z,99.99
2017-02-17T09:56:18.565Z,99.99
2017-02-17T09:57:27.897Z,99.99
2017-02-17T09:58:38.035Z,99.99
2017-02-17T09:59:48.592Z,99.99
2017-02-17T10:00:58.176Z,99.99
2017-02-17T10:02:08.341Z,99.99
2017-02-17T10:03:17.253Z,99.99
2017-02-17T10:04:27.398Z,99.99
2017-02-17T10:05:36.742Z,99.99
2017-02-17T10:06:47.027Z,99.99
2017-02-17T10:07:55.964Z,99.99
2017-02-17T10:09:05.300Z,99.99
2017-02-17T10:10:14.628Z,99.99
2017-02-17T10:11:24.363Z,99.99
2017-02-17T10:12:33.993Z,99.99
2017-02-17T10:13:43.331Z,99.99
2017-02-17T10:14:53.108Z,99.99
2017-02-17T10:16:03.249Z,99.99
2017-02-17T10:17:13.025Z,99.99
2017-02-17T10:18:22.086Z,99.99
2017-02-17T10:19:31.015Z,99.99
2017-02-17T10:20:40.756Z,99.99
2017-02-17T10:21:50.084Z,99.99
2017-02-17T10:22:59.051Z,99.99
2017-02-17T10:24:08.066Z,99.99
2017-02-17T10:25:17.001Z,99.99
2017-02-17T10:26:25.920Z,99.99
2017-02-17T10:27:35.279Z,99.99
2017-02-17T10:28:44.192Z,99.99
2017-02-17T10:29:53.365Z,99.99
2017-02-17T10:31:02.294Z,99.99
2017-02-17T10:32:11.619Z,99.99
2017-02-17T10:33:20.965Z,99.99
2017-02-17T10:34:30.301Z,99.99
2017-02-17T10:35:40.962Z,99.99
2017-02-17T10:36:51.115Z,99.99
2017-02-17T10:38:00.868Z,99.99
2017-02-17T10:39:10.598Z,99.99
2017-02-17T10:40:19.940Z,99.99
2017-02-17T10:41:29.749Z,99.99
2017-02-17T10:42:38.677Z,99.99
2017-02-17T10:43:47.601Z,99.99
2017-02-17T10:44:56.933Z,99.99
2017-02-17T10:46:06.689Z,99.99
2017-02-17T10:47:15.636Z,99.99
2017-02-17T10:48:24.988Z,99.99
2017-02-17T10:49:35.145Z,99.99
2017-02-17T10:50:44.054Z,99.99
2017-02-17T10:51:53.373Z,99.99
2017-02-17T10:53:02.401Z,99.99
2017-02-17T10:54:11.761Z,99.99
2017-02-17T10:55:20.693Z,99.99
2017-02-17T10:56:29.627Z,99.99
2017-02-17T10:57:39.363Z,99.99
2017-02-17T10:58:48.934Z,99.99
2017-02-17T10:59:58.281Z,99.99
2017-02-17T11:01:07.601Z,99.99
2017-02-17T11:02:16.954Z,99.99
2017-02-17T11:03:25.876Z,99.99
2017-02-17T11:04:35.918Z,99.99
2017-02-17T11:05:45.645Z,99.99
2017-02-17T11:06:54.987Z,99.99
2017-02-17T11:08:04.720Z,99.99
2017-02-17T11:09:13.653Z,99.99
2017-02-17T11:10:23.941Z,99.99
2017-02-17T11:11:33.264Z,99.99
2017-02-17T11:12:42.612Z,99.99
2017-02-17T11:13:52.754Z,99.99
2017-02-17T11:15:02.086Z,99.99
2017-02-17T11:16:11.413Z,99.99
2017-02-17T11:17:21.158Z,99.99
2017-02-17T11:18:31.716Z,99.99
2017-02-17T11:19:41.060Z,99.99
2017-02-17T11:20:50.384Z,99.99
2017-02-17T11:22:00.370Z,99.99
2017-02-17T11:23:10.105Z,99.99
2017-02-17T11:24:19.443Z,99.99
2017-02-17T11:25:28.378Z,99.99
2017-02-17T11:26:37.719Z,99.99
2017-02-17T11:27:47.218Z,99.99
2017-02-17T11:28:56.536Z,99.99
2017-02-17T11:30:06.260Z,99.99
2017-02-17T11:31:15.580Z,99.99
2017-02-17T11:32:24.497Z,99.99
2017-02-17T11:33:34.338Z,99.99
2017-02-17T11:34:43.677Z,99.99
2017-02-17T11:35:52.628Z,99.99
2017-02-17T11:37:01.954Z,99.99
2017-02-17T11:38:12.109Z,99.99
2017-02-17T11:39:21.478Z,99.99
2017-02-17T11:40:31.230Z,99.99
2017-02-17T11:41:40.154Z,99.99
2017-02-17T11:42:49.494Z,99.99
2017-02-17T11:43:59.227Z,99.99
2017-02-17T11:45:08.764Z,99.99
2017-02-17T11:46:18.509Z,99.99
2017-02-17T11:47:27.830Z,99.99
2017-02-17T11:48:37.578Z,99.99
2017-02-17T11:49:47.330Z,99.99
2017-02-17T11:50:57.220Z,99.99
2017-02-17T11:52:06.557Z,99.99
2017-02-17T11:53:15.495Z,99.99
2017-02-17T11:54:24.412Z,99.99
2017-02-17T11:55:33.359Z,99.99
2017-02-17T11:56:42.727Z,99.99
2017-02-17T11:57:52.485Z,99.99
2017-02-17T11:59:02.219Z,99.99
2017-02-17T12:00:11.545Z,99.99
2017-02-17T12:01:20.468Z,99.99
2017-02-17T12:02:29.445Z,99.99
2017-02-17T12:03:39.182Z,99.99
2017-02-17T12:04:48.114Z,99.99
2017-02-17T12:05:57.431Z,99.99
2017-02-17T12:07:07.181Z,99.99
2017-02-17T12:08:16.983Z,99.99
2017-02-17T12:09:26.717Z,99.99
2017-02-17T12:10:36.048Z,99.99
2017-02-17T12:11:46.619Z,99.99
2017-02-17T12:12:55.954Z,99.99
2017-02-17T12:14:05.036Z,99.99
2017-02-17T12:15:13.958Z,99.99
2017-02-17T12:16:23.288Z,99.99
2017-02-17T12:17:32.207Z,99.99
2017-02-17T12:18:41.540Z,99.99
2017-02-17T12:19:51.122Z,99.99
2017-02-17T12:21:00.450Z,99.99
2017-02-17T12:22:09.791Z,99.99
2017-02-17T12:23:19.536Z,99.99
2017-02-17T12:24:28.459Z,99.99
2017-02-17T12:25:37.428Z,99.99
2017-02-17T12:26:46.781Z,99.99
2017-02-17T12:27:56.115Z,99.99
2017-02-17T12:29:05.437Z,99.99
2017-02-17T12:30:14.382Z,99.99
2017-02-17T12:31:23.850Z,99.99
2017-02-17T12:32:33.598Z,99.99
2017-02-17T12:33:43.746Z,99.99
2017-02-17T12:34:52.665Z,99.99
2017-02-17T12:36:02.395Z,99.99
2017-02-17T12:37:12.274Z,99.99
2017-02-17T12:38:22.018Z,99.99
2017-02-17T12:39:31.767Z,99.99
2017-02-17T12:40:40.697Z,99.99
2017-02-17T12:41:50.451Z,99.99
2017-02-17T12:43:00.770Z,99.99
2017-02-17T12:44:10.497Z,99.99
2017-02-17T12:45:19.815Z,99.99
2017-02-17T12:46:29.147Z,99.99
2017-02-17T12:47:38.488Z,99.99
2017-02-17T12:48:48.248Z,99.99
2017-02-17T12:49:57.570Z,99.99
2017-02-17T12:51:07.324Z,99.99
2017-02-17T12:52:17.083Z,99.99
2017-02-17T12:53:26.441Z,99.99
2017-02-17T12:54:35.923Z,99.99
2017-02-17T12:55:45.247Z,99.99
2017-02-17T12:56:54.573Z,99.99
2017-02-17T12:58:04.302Z,99.99
2017-02-17T12:59:13.648Z,99.99
2017-02-17T13:00:23.733Z,99.99
2017-02-17T13:01:33.093Z,99.99
2017-02-17T13:02:43.671Z,99.99
2017-02-17T13:03:53.450Z,99.99
2017-02-17T13:05:02.812Z,99.99
2017-02-17T13:06:13.358Z,99.99
2017-02-17T13:07:23.135Z,99.99
2017-02-17T13:08:32.892Z,99.99
2017-02-17T13:09:42.232Z,99.99
2017-02-17T13:10:51.147Z,99.99
2017-02-17T13:12:01.046Z,99.99
2017-02-17T13:13:10.411Z,99.99
2017-02-17T13:14:20.258Z,99.99
2017-02-17T13:15:29.181Z,99.99
2017-02-17T13:16:38.112Z,99.99
2017-02-17T13:17:47.939Z,99.99
2017-02-17T13:18:56.855Z,99.99
2017-02-17T13:20:07.019Z,99.99
2017-02-17T13:21:15.951Z,99.99
2017-02-17T13:22:25.721Z,99.99
2017-02-17T13:23:35.143Z,99.99
2017-02-17T13:24:44.466Z,99.99
2017-02-17T13:25:53.807Z,99.99
2017-02-17T13:27:03.131Z,99.99
2017-02-17T13:28:12.057Z,99.99
2017-02-17T13:29:21.634Z,99.99
2017-02-17T13:30:30.547Z,99.99
2017-02-17T13:31:39.893Z,99.99
2017-02-17T13:32:50.047Z,99.99
2017-02-17T13:33:58.999Z,99.99
2017-02-17T13:35:09.510Z,99.99
2017-02-17T13:36:19.288Z,99.99
2017-02-17T13:37:29.448Z,99.99
2017-02-17T13:38:38.780Z,99.99
2017-02-17T13:39:47.708Z,99.99
2017-02-17T13:40:57.190Z,99.99
2017-02-17T13:42:06.109Z,99.99
2017-02-17T13:43:15.897Z,99.99
2017-02-17T13:44:25.229Z,99.99
2017-02-17T13:45:34.962Z,99.99
2017-02-17T13:46:45.298Z,99.99
2017-02-17T13:47:55.462Z,99.99
2017-02-17T13:49:05.525Z,99.99
2017-02-17T13:50:15.766Z,99.99
2017-02-17T13:51:25.474Z,99.99
2017-02-17T13:52:34.965Z,99.99
2017-02-17T13:53:44.325Z,99.99
2017-02-17T13:54:54.070Z,99.99
2017-02-17T13:56:03.399Z,99.99
2017-02-17T13:57:12.321Z,99.99
2017-02-17T13:58:21.502Z,99.99
2017-02-17T13:59:31.671Z,99.99
2017-02-17T14:00:41.456Z,99.99
2017-02-17T14:01:50.423Z,99.99
2017-02-17T14:03:00.166Z,99.99
2017-02-17T14:04:10.013Z,99.99
2017-02-17T14:05:19.364Z,99.99
2017-02-17T14:06:29.157Z,99.99
2017-02-17T14:07:38.635Z,99.99
2017-02-17T14:08:48.366Z,99.99
2017-02-17T14:09:58.416Z,99.99
2017-02-17T14:11:07.878Z,99.99
2017-02-17T14:12:17.513Z,99.99
2017-02-17T14:13:26.427Z,99.99
2017-02-17T14:14:36.222Z,99.99
2017-02-17T14:15:45.269Z,99.99
2017-02-17T14:16:54.602Z,99.99
2017-02-17T14:18:04.759Z,99.99
2017-02-17T14:19:13.667Z,99.99
2017-02-17T14:20:22.984Z,99.99
2017-02-17T14:21:32.776Z,99.99
2017-02-17T14:22:42.511Z,99.99
2017-02-17T14:23:51.858Z,99.99
2017-02-17T14:25:01.595Z,99.99
2017-02-17T14:26:10.932Z,99.99
2017-02-17T14:27:20.969Z,99.99
2017-02-17T14:28:29.908Z,99.99
2017-02-17T14:29:39.644Z,99.99
2017-02-17T14:30:49.402Z,99.99
2017-02-17T14:31:58.778Z,99.99
2017-02-17T14:33:07.802Z,99.99
2017-02-17T14:34:17.132Z,99.99
2017-02-17T14:35:26.495Z,99.99
2017-02-17T14:36:35.433Z,99.99
2017-02-17T14:37:45.588Z,99.99
2017-02-17T14:38:54.800Z,99.99
2017-02-17T14:40:04.199Z,99.99
2017-02-17T14:41:13.559Z,99.99
2017-02-17T14:42:22.883Z,99.99
2017-02-17T14:43:32.623Z,99.99
2017-02-17T14:44:42.871Z,99.99
2017-02-17T14:45:52.634Z,99.99
2017-02-17T14:47:02.003Z,99.99
2017-02-17T14:48:11.746Z,99.99
2017-02-17T14:49:21.089Z,99.99
2017-02-17T14:50:30.464Z,99.99
2017-02-17T14:51:39.813Z,99.99
2017-02-17T14:52:49.190Z,99.99
2017-02-17T14:53:58.117Z,99.99
2017-02-17T14:55:08.304Z,99.99